Aérodrome :
LOGIN :

S'inscrire | Disclaimer

   EN    FR    IT 

 










Légende :    VFR   VFR Marginal   IFR   IFR Intensif   IFR Très Intensif
Visi : 
Plafond : 
>= 8 km
>= 3000ft
5 à 8 km
1000 à 3000 ft
1500m à 5 km
500 à 1000 ft
800 à 1500m
200 à 500 ft
< 800m
< 200 ft
Symboles :   Orages  Brouillard  Fortes neiges  Fortes précipitations  Vent > 20 kt
SIGMETs :   Divers  Orages  Givrage  Turbulence  Onde Orograph.  Cendres Volcan.






- Altitude de l'aérodrome : 102 ft
- Code IATA : CNG


LFBG - Cognac

DERNIER METAR :
  • 190500Z AUTO 11003KT 4000 BR FEW004 M00/M01 Q1019

METARs EXPIRÉS :
  • 190430Z AUTO 11003KT 4800 BR NSC M00/M01 Q1019
  • 190400Z AUTO 04002KT 6000 NSC M00/M01 Q1019
  • 190330Z AUTO 04002KT 7000 NSC M01/M01 Q1019
  • 190300Z AUTO 18002KT 5000 BR NSC M01/M01 Q1019
  • 190230Z AUTO 00000KT 7000 NSC 00/M00 Q1019

TAF TAF LFBG
Valide du 18 à 15h jusqu'au 19 à 15h UTC


181400Z 1815/1915 32005KT 9999 OVC050
BECMG 1900/1902 3000 BR BKN003
BECMG 1909/1911 9999 NSW BKN008
BECMG 1911/1913 FEW012



MET'MAP, la Météo Aéronautique d'un coup d'oeil ! - Copyright ORBIFLY Décembre 2007 - Disclaimer

ORBIFLY MET'MAP TEAM :

Programmation & Développement : Alexandra Zaïnal
Conception & Développement : Baudouin d'Aumeries
Co-Programmation & Développement : Marc-Olivier Méhu
Soutien technique & logistique : Manuel Goepfert

Contact : metmap@orbifly.com




SOURCES & CREDITS :

   NOAA